My Meet Scores
Kiera Soares, Canon Academy of Gymnastics - MyMeetScores.com
Top100 | Top Teams | Upcoming Meets | Completed Meets | Latest | Add Scores | Help| Support | Bookmark and Share

Kiera Soares, Canon Academy of Gymnastics
Personal Bests
LevelVault BarsBeamFloorAA
49.1758.375 8.9259.07535.275
XG9.1258.300 9.0009.22535.075
XS9.5509.250 9.2009.25036.750
Meet Scores
Date Meet Team Session Level Division Vault Bars Beam Floor AA
2017-12-01 2017 Colorado Level 4 Girls State Meet Canon Academy of Gymnastics 2 4 Sr A 9.175 1 8.100 4T 8.925 4 9.075 1 35.275 1
2017-11-11 2017 AGA Compulsory Meet Canon Academy of Gymnastics 5 4 SR 7.950 18 7.950 16 8.050 17 8.900 9 32.850 16
2017-10-21 JET Gymnastics Pink Ribbon Invitational Canon Academy of Gymnastics 1 4 Sr A 8.650 8 8.000 12 7.350 12 8.650 7 32.650 12
2017-10-14 Active Athletics Monster Mash 2017 Canon Academy of Gymnastics 2 4 Junior B 9.150 4 8.375 9 8.750 7T 8.375 7 34.650 8
2017-09-30 2017 Colorado Judge's Cup Canon Academy of Gymnastics 6 4 Sr A 8.900 1 8.250 5 8.100 8 8.625 2 33.875 3
2017-04-20 2017 Colorado XCEL Gold State Championship Canon Academy of Gymnastics 3 XG Junior B 9.125 2T 7.850 16 8.875 6 9.225 4 35.075 9
2017-03-31 Hippity Hoppity 2017 Canon Academy of Gymnastics 10 XG Junior A 9.000 2T 7.500 12 8.800 2 9.200 4 34.500 4
2017-03-18 Cheryl Baits Xcel Classic Canon Academy of Gymnastics 1 XG Junior 8.400 9 8.300 23 9.000 7 8.900 20 34.600 14
2016-12-03 2016 Colorado Level 4 State Meet Canon Academy of Gymnastics F 4 JR A 7.875 9 6.650 13 8.300 9T 8.350 5 31.175 11
2016-11-12 Mile High Salute Canon Academy of Gymnastics 1 4 Junior 8.350 11T 6.900 15 8.050 15 8.600 14 31.900 14
2016-11-05 Monster Mash Canon Academy of Gymnastics 2 4 Jr B 7.200 14 6.950 14 8.175 12 8.175 12 30.500 14
2016-10-22 2016 AGA Rocktoberfest Canon Academy of Gymnastics 2 4 Jr 6.900 18 7.850 16 6.600 18 7.900 17 29.250 18
2016-10-01 2016 JET Gymnastics Pink Ribbon Invitational Canon Academy of Gymnastics 4 4 Sr A 8.100 9T 7.900 10 7.150 11 8.700 8 31.850 10
2016-09-17 2nd Annual Gold Rush Invitational Canon Academy of Gymnastics 2 4 Ch 9-11 8.700 7T 7.250 21 6.350 23 7.650 19 29.950 21
2016-06-10 2016 Colorado XS State Championship Kinetic Gymnastics 6 XS Jr A 9.350 2 9.250 14 8.800 13T 9.100 12 36.500 9
2016-05-27 Cartwheel Carnival Kinetic Gymnastics 8 XS Junior 9.200 3T 9.150 11T 9.200 11T 9.200 7T 36.750 2
2016-04-15 Airborne April Showers Xcel Meet Kinetic Gymnastics 4 XS Child B 9.100 1 9.200 1 9.200 5T 9.250 3 36.750 1
2016-03-04 2016 CSI Colorado Sky Invitational Kinetic Gymnastics 4B XS Jr B 9.550 1T 9.025 9T 9.175 3T 8.500 5T 36.250 5T
2015-06-20 2015 Colorado Xcel Silver State Championships Kinetic Gymnastics 2 XS Child 8.750 7T 9.125 13T 9.000 5 8.950 11T 35.825 5T
2015-05-15 Live, Love, And Gymnastics Kinetic Gymnastics 5 XS Youth 0.000 0.000 0.000 0.000 0.000 0
2015-04-10 Hippity Hoppity V 2015 Kinetic Gymnastics 3 XS Child 8.600 2T 8.800 8 8.400 6 8.650 4T 34.450 6T
2015-03-21 Stars Of Xcel Spring Inviatational Kinetic Gymnastics 1 XS JrA 8.700 12 8.250 12 8.800 9 8.000 12 33.750 11

www.lazysuits.com